Time;durP1;ratioP1;P1;durP2;ratioP2;P2;SDS_P1;SDS_P2;PMS_P1;PMS_P2;Temp;Humidity;BMP_temperature;BMP_pressure;BME280_temperature;BME280_humidity;BME280_pressure;Samples;Min_cycle;Max_cycle;Signal;HPM_P1;HPM_P2
2022/02/04 00:06:54;;;;;;;15.80;5.10;;;;;;;7.32;89.03;101064.53;5033988;28;20124;-47
2022/02/04 00:27:54;;;;;;;20.83;5.78;;;;;;;7.30;89.24;101052.28;5034417;28;20061;-46
2022/02/04 00:30:25;;;;;;;;;;;;;;;7.32;89.24;101055.63;5033531;28;20515;-46
2022/02/04 00:32:53;;;;;;;21.23;5.47;;;;;;;7.33;89.23;101054.66;5034162;28;19940;-49
2022/02/04 00:35:31;;;;;;;14.88;5.15;;;;;;;7.33;89.00;101046.63;5034196;28;20068;-47
2022/02/04 00:40:24;;;;;;;17.83;4.88;;;;;;;7.35;89.09;101041.97;5033583;28;20092;-48
2022/02/04 00:42:51;;;;;;;17.83;5.68;;;;;;;7.36;88.99;101039.09;5033115;28;20445;-48
2022/02/04 00:45:26;;;;;;;16.05;5.00;;;;;;;7.38;89.05;101041.66;5034091;28;20029;-46
2022/02/04 00:48:00;;;;;;;19.85;5.07;;;;;;;7.40;88.79;101045.84;5034435;28;20030;-47
2022/02/04 00:50:32;;;;;;;15.25;4.80;;;;;;;7.40;88.67;101043.16;5033624;28;20042;-49
2022/02/04 00:53:10;;;;;;;19.92;5.53;;;;;;;7.44;88.55;101032.97;5034013;28;20025;-47
2022/02/04 00:56:00;;;;;;;16.65;4.55;;;;;;;7.46;88.81;101023.78;5034228;28;20037;-49
2022/02/04 01:28:28;;;;;;;22.30;4.88;;;;;;;7.41;89.47;100998.47;5033722;28;20120;-47
2022/02/04 01:30:55;;;;;;;21.90;4.45;;;;;;;7.41;89.87;100991.28;5033041;28;20029;-50
2022/02/04 01:33:20;;;;;;;25.25;4.70;;;;;;;7.41;89.29;100996.63;5033316;28;20026;-48
2022/02/04 01:35:46;;;;;;;23.02;4.50;;;;;;;7.41;89.74;100993.13;5032907;28;20044;-48
2022/02/04 01:38:12;;;;;;;19.30;4.50;;;;;;;7.40;89.28;100989.63;5033243;28;20409;-49
2022/02/04 01:40:37;;;;;;;16.60;4.13;;;;;;;7.42;89.76;100986.75;5031914;28;20052;-50
2022/02/04 01:43:03;;;;;;;15.68;4.80;;;;;;;7.41;90.25;100990.44;5031432;28;20464;-47
2022/02/04 01:45:28;;;;;;;22.30;4.45;;;;;;;7.40;90.17;100996.81;5032825;28;20042;-50
2022/02/04 01:47:57;;;;;;;20.27;4.43;;;;;;;7.40;90.35;100981.59;5032626;28;20432;-47
2022/02/04 01:50:30;;;;;;;27.92;5.82;;;;;;;7.41;90.34;100979.75;5032614;28;20057;-48
2022/02/04 01:52:56;;;;;;;20.33;4.03;;;;;;;7.44;90.41;100979.41;5032456;28;20025;-47
2022/02/04 01:55:22;;;;;;;25.05;4.10;;;;;;;7.43;90.15;100985.78;5032403;28;20029;-50
2022/02/04 01:57:48;;;;;;;18.95;4.20;;;;;;;7.44;90.30;100990.13;5032067;28;20026;-48
2022/02/04 02:00:14;;;;;;;19.23;4.10;;;;;;;7.44;90.27;100984.78;5031111;28;20025;-47
2022/02/04 02:02:40;;;;;;;26.00;3.55;;;;;;;7.48;90.00;100978.13;5032651;28;20374;-48
2022/02/04 02:05:05;;;;;;;31.60;4.80;;;;;;;7.47;90.12;100971.91;5032028;28;20090;-48
2022/02/04 02:07:32;;;;;;;25.67;4.25;;;;;;;7.48;90.00;100975.44;5032446;28;20064;-47
2022/02/04 02:10:03;;;;;;;23.70;3.90;;;;;;;7.49;89.73;100966.41;5032384;28;20187;-49
2022/02/04 02:12:35;;;;;;;18.50;3.00;;;;;;;7.48;90.25;100957.53;5032604;28;20111;-49
2022/02/04 02:15:27;;;;;;;25.98;3.40;;;;;;;7.48;89.72;100965.56;5032203;28;20057;-46
2022/02/04 02:37:50;;;;;;;18.75;3.05;;;;;;;7.57;89.29;100939.66;5031499;28;20116;-46
2022/02/04 02:47:39;;;;;;;24.00;3.72;;;;;;;7.54;88.79;100928.44;5028186;28;20056;-48
2022/02/04 03:02:48;;;;;;;19.83;2.80;;;;;;;7.45;88.95;100911.47;5031942;28;20041;-47
2022/02/04 03:05:13;;;;;;;15.25;3.30;;;;;;;7.44;89.02;100912.47;5031712;28;20029;-47
2022/02/04 03:07:38;;;;;;;21.92;2.63;;;;;;;7.42;88.72;100906.44;5031446;28;20036;-48
2022/02/04 03:10:04;;;;;;;13.40;2.67;;;;;;;7.44;88.95;100909.78;5031475;28;20061;-46
2022/02/04 03:12:31;;;;;;;16.85;2.75;;;;;;;7.42;88.86;100903.75;5030795;28;20370;-46
2022/02/04 03:14:56;;;;;;;26.33;2.87;;;;;;;7.43;88.92;100900.09;5030791;28;20489;-48
2022/02/04 03:17:22;;;;;;;14.90;2.80;;;;;;;7.45;88.96;100903.44;5029855;28;20371;-47
2022/02/04 03:19:52;;;;;;;30.75;3.67;;;;;;;7.45;88.63;100900.75;5031337;28;20036;-50
2022/02/04 03:22:17;;;;;;;16.60;2.75;;;;;;;7.45;88.71;100903.44;5031318;28;20428;-49
2022/02/04 03:24:48;;;;;;;21.33;2.95;;;;;;;7.44;89.08;100894.56;5031466;28;20064;-47
2022/02/04 03:27:15;;;;;;;20.92;2.70;;;;;;;7.45;89.29;100898.94;5031532;28;20103;-47
2022/02/04 03:30:07;;;;;;;20.45;3.28;;;;;;;7.44;88.98;100899.09;5029038;28;20036;-47
2022/02/04 03:32:25;;;;;;;23.05;3.30;;;;;;;7.46;89.25;100894.41;5023277;28;20048;-49
2022/02/04 03:34:51;;;;;;;25.80;3.75;;;;;;;7.44;89.31;100891.88;5030982;28;20117;-47
2022/02/04 03:37:16;;;;;;;24.17;2.70;;;;;;;7.46;89.50;100894.41;5029731;28;20091;-47
2022/02/04 03:39:42;;;;;;;29.63;3.60;;;;;;;7.47;89.84;100901.44;5030506;28;20124;-49
2022/02/04 03:42:08;;;;;;;29.48;4.47;;;;;;;7.48;89.66;100892.41;5030025;28;20068;-47
2022/02/04 03:44:33;;;;;;;24.50;3.08;;;;;;;7.47;89.83;100896.91;5031162;28;20038;-50
2022/02/04 03:46:59;;;;;;;17.35;2.42;;;;;;;7.48;89.99;100887.91;5030751;28;20100;-47
2022/02/04 03:49:24;;;;;;;20.13;3.33;;;;;;;7.47;90.20;100888.88;5022485;28;20030;-46
2022/02/04 03:51:50;;;;;;;21.67;3.03;;;;;;;7.47;90.34;100888.03;5024489;28;20462;-47
2022/02/04 03:54:15;;;;;;;19.65;2.60;;;;;;;7.45;90.18;100879.31;5029526;28;20025;-47
2022/02/04 03:56:40;;;;;;;21.02;3.10;;;;;;;7.44;90.21;100881.16;5015501;28;20083;-48
2022/02/04 03:59:06;;;;;;;22.30;2.58;;;;;;;7.42;90.82;100887.69;5015263;28;20040;-45
2022/02/04 04:01:31;;;;;;;24.48;2.75;;;;;;;7.41;90.65;100883.34;5029335;28;20021;-48
2022/02/04 04:03:56;;;;;;;22.60;2.90;;;;;;;7.40;90.71;100879.84;5017625;28;20471;-48
2022/02/04 04:06:22;;;;;;;24.33;2.60;;;;;;;7.39;90.81;100872.78;5032615;28;20083;-48
2022/02/04 04:08:51;;;;;;;22.40;2.80;;;;;;;7.39;91.00;100866.59;5033475;28;20075;-47
2022/02/04 04:11:17;;;;;;;15.90;2.33;;;;;;;7.39;90.64;100866.59;5032099;28;20116;-47
2022/02/04 04:13:42;;;;;;;17.83;2.45;;;;;;;7.40;90.80;100857.59;5014906;28;20022;-48
2022/02/04 04:16:08;;;;;;;19.00;2.72;;;;;;;7.40;90.47;100863.75;5030765;28;20462;-46
2022/02/04 04:18:33;;;;;;;23.90;3.15;;;;;;;7.41;90.60;100861.91;5034381;28;20461;-48
2022/02/04 04:21:01;;;;;;;18.58;2.40;;;;;;;7.41;90.23;100854.72;5030037;28;20025;-49
2022/02/04 04:23:26;;;;;;;30.02;3.53;;;;;;;7.42;90.16;100852.88;5020657;28;20025;-47
2022/02/04 04:25:52;;;;;;;16.70;2.47;;;;;;;7.44;90.34;100856.25;5033841;28;20041;-47
2022/02/04 04:28:17;;;;;;;36.13;4.50;;;;;;;7.44;90.00;100861.59;5031730;28;20029;-49
2022/02/04 04:30:42;;;;;;;21.05;2.58;;;;;;;7.44;90.39;100861.59;5032327;28;20036;-48
2022/02/04 04:33:10;;;;;;;15.48;2.42;;;;;;;7.44;90.57;100856.25;5033400;28;20068;-50
2022/02/04 04:35:36;;;;;;;24.48;2.40;;;;;;;7.45;90.46;100871.28;5015018;28;20062;-47
2022/02/04 04:40:56;;;;;;;18.58;2.38;;;;;;;7.46;90.03;100855.09;5023924;28;20497;-50
2022/02/04 04:43:47;;;;;;;20.38;2.47;;;;;;;7.47;89.99;100853.22;5031552;28;20059;-49
2022/02/04 05:30:01;;;;;;;11.13;2.13;;;;;;;7.64;86.73;100790.69;5032905;28;20040;-46
2022/02/04 05:32:26;;;;;;;10.27;1.67;;;;;;;7.60;86.60;100792.00;5033283;28;20029;-45
2022/02/04 05:34:51;;;;;;;11.02;1.90;;;;;;;7.58;86.96;100794.03;5033319;28;20033;-47
2022/02/04 05:37:20;;;;;;;6.05;2.15;;;;;;;7.57;87.04;100783.47;5031811;28;20041;-46
2022/02/04 05:40:07;;;;;;;;;;;;;;;7.56;87.00;100781.81;5038479;28;20033;-46
2022/02/04 05:42:36;;;;;;;;;;;;;;;7.51;87.17;100784.97;5034029;28;19913;-47
2022/02/04 05:45:07;;;;;;;8.30;2.33;;;;;;;7.52;87.42;100783.13;5033124;28;20023;-47
2022/02/04 05:47:33;;;;;;;13.20;2.45;;;;;;;7.53;87.14;100779.44;5033171;28;20039;-47
2022/02/04 05:50:12;;;;;;;13.80;2.85;;;;;;;7.50;87.31;100769.88;5033117;28;20188;-47
2022/02/04 05:53:49;;;;;;;11.35;2.10;;;;;;;7.51;87.12;100760.03;5032992;28;20131;-48
2022/02/04 05:55:58;;;;;;;9.88;2.50;;;;;;;7.53;87.21;100772.25;5019363;28;20052;-48
2022/02/04 05:58:44;;;;;;;12.23;2.17;;;;;;;7.54;87.11;100778.44;5033230;28;20029;-50
2022/02/04 06:01:34;;;;;;;11.00;2.88;;;;;;;7.55;87.30;100764.88;5032905;28;20030;-47
2022/02/04 06:09:55;;;;;;;7.38;2.42;;;;;;;7.53;87.75;100772.25;5068510;28;20044;-56
2022/02/04 06:23:20;;;;;;;11.45;3.78;;;;;;;7.46;89.46;100774.75;5049204;28;20063;-55
2022/02/04 06:25:45;;;;;;;7.47;3.33;;;;;;;7.42;89.47;100756.47;5065815;28;20094;-55
2022/02/04 06:28:13;;;;;;;11.15;4.38;;;;;;;7.40;89.32;100758.50;5067808;28;20020;-55
2022/02/04 06:30:39;;;;;;;16.90;5.10;;;;;;;7.41;89.47;100760.19;5067377;28;20025;-55
2022/02/04 06:33:04;;;;;;;15.38;6.05;;;;;;;7.37;89.94;100764.16;5068235;28;20290;-54
2022/02/04 06:35:35;;;;;;;15.63;5.85;;;;;;;7.38;90.15;100757.81;5068693;28;20400;-55
2022/02/04 06:38:01;;;;;;;12.70;7.03;;;;;;;7.35;90.23;100748.28;5058805;28;20033;-55
2022/02/04 06:40:26;;;;;;;19.52;6.63;;;;;;;7.34;90.63;100756.47;5048667;28;20473;-54
2022/02/04 06:42:54;;;;;;;20.35;7.28;;;;;;;7.32;90.76;100751.28;5055849;28;20043;-55
2022/02/04 06:45:20;;;;;;;;;;;;;;;7.31;90.71;100743.41;5063754;28;20381;-53
2022/02/04 06:47:46;;;;;;;19.50;6.60;;;;;;;7.24;91.19;100751.25;5066246;28;19912;-54
2022/02/04 06:50:11;;;;;;;22.10;7.70;;;;;;;7.23;91.40;100754.94;5048423;28;20650;-55
2022/02/04 06:52:37;;;;;;;16.55;7.78;;;;;;;7.22;91.42;100745.22;5059288;28;20057;-54
2022/02/04 06:55:03;;;;;;;16.35;7.65;;;;;;;7.24;91.56;100741.41;5048049;28;20032;-55
2022/02/04 06:57:28;;;;;;;15.90;7.13;;;;;;;7.30;91.50;100755.13;5048202;28;20083;-54
2022/02/04 06:59:54;;;;;;;9.68;7.43;;;;;;;7.29;91.45;100740.06;5047920;28;20025;-54
2022/02/04 07:02:21;;;;;;;12.55;7.72;;;;;;;7.29;91.47;100732.84;5049089;28;20044;-54
2022/02/04 07:04:46;;;;;;;16.95;8.00;;;;;;;7.31;91.55;100735.38;5048536;28;20092;-54
2022/02/04 07:07:13;;;;;;;15.70;8.10;;;;;;;7.30;91.81;100734.53;5048235;28;20029;-53
2022/02/04 07:10:05;;;;;;;14.85;8.88;;;;;;;7.29;91.90;100738.22;5048952;28;20075;-54
2022/02/04 07:12:34;;;;;;;15.02;8.70;;;;;;;7.30;92.06;100747.94;5052269;28;20029;-55
2022/02/04 07:17:40;;;;;;;18.30;10.00;;;;;;;7.30;92.08;100752.44;5037106;28;20466;-53
2022/02/04 07:20:05;;;;;;;17.95;10.00;;;;;;;7.30;92.52;100729.19;5034920;28;20068;-53
2022/02/04 07:22:34;;;;;;;15.82;9.85;;;;;;;7.32;92.42;100735.22;5034877;28;20029;-56
2022/02/04 07:25:03;;;;;;;23.60;11.40;;;;;;;7.31;92.38;100738.06;5034470;28;20022;-55
2022/02/04 07:27:30;;;;;;;26.60;12.02;;;;;;;7.29;92.56;100726.66;5034525;28;20029;-54
2022/02/04 07:29:56;;;;;;;25.50;12.27;;;;;;;7.30;92.61;100728.38;5034360;28;20100;-54
2022/02/04 07:42:47;;;;;;;22.08;11.85;;;;;;;7.33;92.77;100712.78;5034785;28;20039;-55
2022/02/04 07:45:12;;;;;;;20.65;11.63;;;;;;;7.34;92.74;100721.66;5034181;28;20029;-53
2022/02/04 07:47:37;;;;;;;19.33;11.52;;;;;;;7.34;92.49;100705.59;5034255;28;20029;-54
2022/02/04 07:50:04;;;;;;;20.20;10.88;;;;;;;7.35;92.43;100726.88;5034104;28;20036;-54
2022/02/04 07:52:30;;;;;;;20.35;10.73;;;;;;;7.37;92.07;100714.16;5032897;28;20499;-54
2022/02/04 07:54:55;;;;;;;21.33;10.23;;;;;;;7.37;91.97;100719.50;5033814;28;20100;-55
2022/02/04 07:57:20;;;;;;;19.83;8.52;;;;;;;7.42;91.76;100705.59;5032703;28;20029;-58
2022/02/04 07:59:47;;;;;;;13.55;8.70;;;;;;;7.43;92.05;100713.50;5034116;28;20041;-55
2022/02/04 08:02:13;;;;;;;15.68;9.07;;;;;;;7.42;91.42;100708.28;5034065;28;20539;-55
2022/02/04 08:04:40;;;;;;;17.17;8.80;;;;;;;7.42;91.39;100692.22;5033875;28;20033;-56
2022/02/04 08:07:10;;;;;;;16.65;7.13;;;;;;;7.45;91.41;100689.22;5034055;28;20083;-56
2022/02/04 08:12:34;;;;;;;16.23;6.43;;;;;;;7.52;90.72;100674.16;5034225;28;20041;-55
2022/02/04 08:14:58;;;;;;;11.13;5.45;;;;;;;7.52;90.76;100679.53;5044575;28;20472;-54
2022/02/04 08:23:02;;;;;;;13.20;5.55;;;;;;;7.60;89.53;100655.41;5032638;28;20091;-56
2022/02/04 09:02:03;;;;;;;11.18;5.78;;;;;;;7.75;89.73;100619.94;5033251;28;20045;-55
2022/02/04 09:04:34;;;;;;;7.25;5.75;;;;;;;7.76;89.85;100626.97;5032978;28;20100;-53
2022/02/04 09:07:06;;;;;;;11.32;6.38;;;;;;;7.69;89.86;100629.50;5032818;28;20056;-55
2022/02/04 09:09:49;;;;;;;11.07;6.22;;;;;;;7.70;90.03;100633.84;5032720;28;20041;-55
2022/02/04 09:16:52;;;;;;;16.23;7.15;;;;;;;7.69;89.61;100611.56;5031515;28;20029;-55
2022/02/04 09:20:58;;;;;;;9.95;6.30;;;;;;;7.93;88.63;100595.63;5052372;28;20040;-54
2022/02/04 09:23:25;;;;;;;13.18;6.00;;;;;;;7.95;88.17;100591.75;5052331;28;20052;-53
2022/02/04 09:25:51;;;;;;;9.90;5.72;;;;;;;8.07;87.99;100602.97;5052221;28;20021;-54
2022/02/04 09:28:16;;;;;;;8.55;5.05;;;;;;;8.01;87.71;100583.03;5052231;28;20032;-55
2022/02/04 09:30:41;;;;;;;9.90;5.03;;;;;;;8.07;87.47;100597.59;5052367;28;20376;-54
2022/02/04 09:33:07;;;;;;;10.20;4.55;;;;;;;8.09;87.02;100585.69;5051809;28;20108;-55
2022/02/04 09:35:33;;;;;;;7.88;4.70;;;;;;;8.10;87.30;100603.44;5037328;28;20025;-53
2022/02/04 09:37:59;;;;;;;7.10;4.53;;;;;;;8.14;87.00;100594.06;5032400;28;20399;-55
2022/02/04 09:40:24;;;;;;;7.05;4.70;;;;;;;8.17;87.90;100592.06;5032039;28;20060;-54
2022/02/04 09:42:51;;;;;;;10.63;5.32;;;;;;;8.09;87.66;100591.06;5031993;28;20469;-54
2022/02/04 09:45:19;;;;;;;7.43;4.50;;;;;;;8.04;88.19;100592.59;5031898;28;20075;-54
2022/02/04 09:47:47;;;;;;;;;;;;;;;8.01;88.44;100583.03;5032646;28;20505;-52
2022/02/04 09:50:18;;;;;;;10.45;4.40;;;;;;;7.95;88.94;100581.03;5031888;28;19905;-54
2022/02/04 10:10:08;;;;;;;6.75;6.05;;;;;;;7.90;87.99;100562.81;5049658;28;20052;-55
2022/02/04 10:15:20;;;;;;;13.65;6.45;;;;;;;7.86;87.29;100557.97;5034778;28;20115;-55
2022/02/04 10:18:00;;;;;;;9.82;5.45;;;;;;;7.91;87.45;100556.44;5051746;28;20037;-54
2022/02/04 10:20:25;;;;;;;10.77;6.18;;;;;;;7.89;87.37;100569.16;5051514;28;20032;-56
2022/02/04 10:22:51;;;;;;;8.00;5.63;;;;;;;7.89;86.68;100541.53;5040326;28;20025;-55
2022/02/04 10:25:17;;;;;;;11.48;6.13;;;;;;;7.94;87.00;100559.78;5031668;28;20497;-56
2022/02/04 10:27:46;;;;;;;5.82;4.82;;;;;;;7.94;86.59;100549.91;5031944;28;20026;-56
2022/02/04 10:30:12;;;;;;;7.93;5.07;;;;;;;8.00;86.51;100538.47;5031404;28;20048;-54
2022/02/04 10:32:49;;;;;;;10.73;4.82;;;;;;;8.04;86.21;100531.78;5050355;28;20120;-55
2022/02/04 10:35:46;;;;;;;7.88;5.07;;;;;;;7.97;85.67;100560.25;5050156;28;20464;-54
2022/02/04 10:38:23;;;;;;;8.02;4.78;;;;;;;7.94;86.26;100523.09;5051586;28;20486;-55
2022/02/04 10:46:38;;;;;;;6.10;4.03;;;;;;;8.04;84.91;100496.94;5050030;28;20044;-54
2022/02/04 10:51:52;;;;;;;12.43;5.20;;;;;;;7.93;85.67;100515.25;5049184;28;20087;-53
2022/02/04 10:59:36;;;;;;;9.10;4.47;;;;;;;7.97;84.82;100501.31;5035451;28;20053;-55
2022/02/04 11:02:35;;;;;;;7.05;4.10;;;;;;;7.98;85.07;100486.91;5018342;28;20043;-55
2022/02/04 11:07:49;;;;;;;6.35;3.88;;;;;;;7.94;85.13;100474.03;5033717;28;20045;-55
2022/02/04 11:52:41;;;;;;;7.93;3.85;;;;;;;7.63;88.07;100403.31;5043427;28;20080;-55
2022/02/04 11:55:09;;;;;;;;;;;;;;;7.58;88.99;100395.00;5054486;28;20028;-54
2022/02/04 11:57:34;;;;;;;;;;;;;;;7.49;90.02;100390.66;5054221;28;20364;-55
2022/02/04 12:00:06;;;;;;;10.10;4.38;;;;;;;7.39;91.50;100451.59;5053875;28;19913;-53
2022/02/04 12:02:34;;;;;;;10.25;5.38;;;;;;;7.28;92.61;100395.75;5053736;28;20117;-53
2022/02/04 12:05:18;;;;;;;8.95;5.22;;;;;;;7.12;93.71;100386.75;5053684;28;20049;-54
2022/02/04 12:08:15;;;;;;;18.05;6.30;;;;;;;7.00;94.98;100374.72;5044436;28;20047;-54
2022/02/04 12:10:42;;;;;;;15.15;5.95;;;;;;;6.94;95.72;100364.72;5034316;28;20041;-52
2022/02/04 12:13:10;;;;;;;10.98;5.97;;;;;;;6.90;95.92;100360.69;5034068;28;20037;-55
2022/02/04 12:15:38;;;;;;;9.60;5.68;;;;;;;6.89;96.58;100356.34;5033984;28;20033;-52
2022/02/04 12:18:06;;;;;;;13.35;5.40;;;;;;;6.85;96.83;100349.69;5032484;28;20156;-52
2022/02/04 12:23:33;;;;;;;17.40;5.78;;;;;;;6.78;97.33;100345.00;5033721;28;20034;-54
2022/02/04 12:26:01;;;;;;;9.70;5.28;;;;;;;6.77;97.33;100332.66;5033343;28;20029;-55
2022/02/04 12:28:58;;;;;;;17.42;5.65;;;;;;;6.75;97.46;100321.28;5034040;28;20087;-54
2022/02/04 12:31:50;;;;;;;;;;;;;;;6.72;98.10;100324.28;5034021;28;20056;-55
2022/02/04 12:34:19;;;;;;;13.48;6.00;;;;;;;6.70;98.35;100312.94;5032153;28;19939;-52
2022/02/04 12:36:50;;;;;;;15.68;5.18;;;;;;;6.69;98.51;100313.94;5032286;28;20111;-54
2022/02/04 12:39:17;;;;;;;19.75;6.50;;;;;;;6.68;98.42;100316.78;5033436;28;20041;-52
2022/02/04 12:41:51;;;;;;;12.18;5.30;;;;;;;6.64;98.46;100294.91;5033235;28;20021;-52
2022/02/04 12:44:17;;;;;;;23.42;5.18;;;;;;;6.67;98.42;100320.47;5031992;28;20033;-54
2022/02/04 12:46:46;;;;;;;22.17;6.40;;;;;;;6.67;99.02;100358.72;5032974;28;20037;-51
2022/02/04 12:49:22;;;;;;;16.80;5.68;;;;;;;6.71;99.74;100380.63;5032043;28;20029;-55
2022/02/04 12:55:10;;;;;;;14.73;1.85;;;;;;;6.11;97.47;100395.13;5033187;28;20473;-53
2022/02/04 12:57:40;;;;;;;16.83;1.35;;;;;;;5.54;93.72;100408.25;5033054;28;20057;-50
2022/02/04 13:08:20;;;;;;;21.60;1.45;;;;;;;4.75;97.22;100426.09;5046632;28;20600;-53
2022/02/04 13:10:59;;;;;;;12.25;1.15;;;;;;;4.61;97.07;100432.81;5053110;28;20477;-51
2022/02/04 13:13:24;;;;;;;11.40;1.08;;;;;;;4.52;96.04;100439.03;5050878;28;20040;-51
2022/02/04 13:15:51;;;;;;;14.98;1.40;;;;;;;4.52;96.49;100445.22;5052324;28;20029;-51
2022/02/04 13:18:17;;;;;;;9.70;0.70;;;;;;;4.43;96.98;100438.13;5052544;28;20021;-53
2022/02/04 13:20:47;;;;;;;5.50;1.17;;;;;;;4.29;96.76;100439.50;5052420;28;20128;-53
2022/02/04 13:23:16;;;;;;;10.60;1.35;;;;;;;4.23;96.11;100449.91;5052656;28;20068;-53
2022/02/04 13:25:44;;;;;;;5.22;0.75;;;;;;;4.17;96.40;100451.34;5052038;28;20450;-54
2022/02/04 13:28:19;;;;;;;19.00;1.45;;;;;;;4.24;95.76;100456.91;5040045;28;20041;-54
2022/02/04 13:31:03;;;;;;;5.45;0.93;;;;;;;4.18;96.00;100461.84;5049604;28;20033;-54
2022/02/04 13:33:41;;;;;;;7.47;1.20;;;;;;;4.19;96.27;100473.38;5052740;28;20025;-55
2022/02/04 13:41:53;;;;;;;4.35;0.40;;;;;;;4.27;96.07;100481.44;5052427;28;20032;-54
2022/02/04 13:57:33;;;;;;;7.93;1.00;;;;;;;4.23;96.02;100520.00;5009135;28;20555;-53
2022/02/04 14:00:12;;;;;;;4.53;0.85;;;;;;;4.24;95.39;100523.50;5032386;28;20087;-54
2022/02/04 14:02:46;;;;;;;6.35;1.63;;;;;;;4.32;95.40;100524.47;5032367;28;20079;-53
2022/02/04 14:05:13;;;;;;;7.65;1.05;;;;;;;4.36;96.35;100538.31;5032076;28;20046;-55
2022/02/04 14:07:48;;;;;;;5.10;0.60;;;;;;;4.42;96.80;100544.84;5043590;28;20029;-54
2022/02/04 14:10:54;;;;;;;4.18;0.95;;;;;;;4.44;96.29;100546.38;5052283;28;20104;-55
2022/02/04 14:13:24;;;;;;;6.50;0.70;;;;;;;4.44;96.11;100543.72;5045962;28;20491;-55
2022/02/04 14:15:54;;;;;;;7.38;0.88;;;;;;;4.47;95.13;100538.09;5052032;28;20032;-54
2022/02/04 14:18:20;;;;;;;7.63;0.80;;;;;;;4.45;93.86;100556.06;5051840;28;20502;-54
2022/02/04 14:20:45;;;;;;;2.22;0.50;;;;;;;4.39;93.03;100554.00;5052329;28;20033;-54
2022/02/04 14:23:11;;;;;;;9.15;1.10;;;;;;;4.35;93.61;100563.28;5050820;28;20116;-54
2022/02/04 14:26:21;;;;;;;8.85;0.82;;;;;;;4.35;93.99;100571.28;5033846;28;20030;-52
2022/02/04 14:28:47;;;;;;;7.07;0.63;;;;;;;4.39;94.18;100575.31;5052165;28;20037;-53
2022/02/04 14:50:17;;;;;;;5.43;0.90;;;;;;;4.32;92.98;100649.69;5038415;28;20040;-53
2022/02/04 15:00:40;;;;;;;6.75;0.63;;;;;;;4.33;93.73;100674.47;5055246;28;20036;-53
2022/02/04 15:05:40;;;;;;;4.60;0.90;;;;;;;4.40;94.57;100686.25;5038005;28;20134;-53
2022/02/04 15:08:10;;;;;;;8.45;1.58;;;;;;;4.35;93.61;100699.16;5035043;28;20401;-53
2022/02/04 15:10:38;;;;;;;8.10;0.98;;;;;;;4.33;92.33;100717.13;5035158;28;20037;-54
2022/02/04 15:13:07;;;;;;;10.02;1.00;;;;;;;4.23;92.29;100721.63;5035433;28;20072;-55
2022/02/04 15:15:32;;;;;;;8.00;0.80;;;;;;;4.18;92.58;100720.22;5035106;28;20033;-52
2022/02/04 15:17:57;;;;;;;5.90;0.85;;;;;;;4.12;91.58;100726.13;5035081;28;20026;-53
2022/02/04 15:20:23;;;;;;;8.55;0.80;;;;;;;4.19;93.24;100734.41;5034734;28;20025;-54
2022/02/04 15:22:49;;;;;;;6.85;1.00;;;;;;;4.20;92.54;100737.91;5033651;28;20025;-55
2022/02/04 15:25:19;;;;;;;9.07;1.17;;;;;;;4.25;91.88;100727.66;5034958;28;20116;-55
2022/02/04 15:27:56;;;;;;;14.30;1.27;;;;;;;4.32;93.09;100742.91;5034975;28;20072;-53
2022/02/04 15:30:27;;;;;;;5.97;0.80;;;;;;;4.38;93.16;100741.50;5034833;28;20370;-53
2022/02/04 15:32:55;;;;;;;6.75;0.93;;;;;;;4.54;93.53;100755.06;5034704;28;20056;-53
2022/02/04 15:35:20;;;;;;;8.43;1.30;;;;;;;4.61;92.82;100760.66;5034657;28;20090;-54
2022/02/04 15:37:45;;;;;;;9.90;0.98;;;;;;;4.67;93.28;100783.22;5034234;28;20037;-53
2022/02/04 15:40:11;;;;;;;6.57;1.00;;;;;;;4.63;91.28;100772.00;5034391;28;20040;-54
2022/02/04 15:42:42;;;;;;;7.28;1.08;;;;;;;4.46;87.98;100789.59;5034603;28;20025;-55
2022/02/04 15:45:58;;;;;;;7.32;1.20;;;;;;;4.38;88.12;100802.78;5034394;28;20393;-56
2022/02/04 15:50:59;;;;;;;9.70;1.17;;;;;;;4.22;89.59;100816.69;5054772;28;20433;-56
2022/02/04 15:58:52;;;;;;;20.08;2.33;;;;;;;4.03;89.23;100828.19;5054274;28;20120;-55
2022/02/04 16:04:28;;;;;;;13.07;1.33;;;;;;;4.02;90.18;100842.47;5052825;28;20037;-55
2022/02/04 16:06:32;;;;;;;15.63;2.03;;;;;;;4.01;91.29;100843.47;5053301;28;20103;-54
2022/02/04 16:08:58;;;;;;;20.70;2.40;;;;;;;4.00;91.34;100840.94;5042627;28;20030;-55
2022/02/04 16:14:20;;;;;;;21.80;2.22;;;;;;;3.91;92.31;100854.09;5034114;28;20075;-54
2022/02/04 16:16:46;;;;;;;17.27;2.17;;;;;;;3.99;91.49;100866.72;5033824;28;20041;-54
2022/02/04 16:19:27;;;;;;;21.23;2.25;;;;;;;4.10;88.81;100879.06;5033826;28;20056;-55
2022/02/04 16:24:50;;;;;;;17.70;2.60;;;;;;;4.34;87.40;100889.31;5033955;28;20029;-55
2022/02/04 16:30:00;;;;;;;19.83;2.20;;;;;;;4.37;87.55;100894.34;5033641;28;20067;-55
2022/02/04 16:32:29;;;;;;;17.85;2.53;;;;;;;4.35;88.63;100909.66;5047241;28;20103;-55
2022/02/04 16:34:55;;;;;;;17.02;2.97;;;;;;;4.36;87.84;100911.31;5053496;28;20039;-55
2022/02/04 16:37:35;;;;;;;14.07;2.67;;;;;;;4.35;87.54;100913.16;5052189;28;20052;-56
2022/02/04 16:40:11;;;;;;;26.15;3.95;;;;;;;4.34;87.27;100916.78;5053753;28;20090;-56
2022/02/04 16:42:36;;;;;;;25.08;2.92;;;;;;;4.34;86.35;100923.94;5053467;28;20029;-57
2022/02/04 16:45:01;;;;;;;23.58;3.53;;;;;;;4.37;85.93;100927.19;5053216;28;20025;-54
2022/02/04 16:47:27;;;;;;;23.85;3.78;;;;;;;4.45;87.06;100936.28;5052002;28;20040;-54
2022/02/04 16:49:52;;;;;;;17.77;3.22;;;;;;;4.47;88.15;100934.31;5052326;28;20043;-54
2022/02/04 16:52:18;;;;;;;22.65;3.47;;;;;;;4.49;87.56;100941.19;5051885;28;20041;-54
2022/02/04 16:54:43;;;;;;;23.42;3.28;;;;;;;4.55;86.95;100923.81;5037105;28;20027;-55
2022/02/04 16:57:09;;;;;;;21.00;3.00;;;;;;;4.58;86.61;100940.38;5033273;28;20064;-55
2022/02/04 16:59:34;;;;;;;11.35;2.40;;;;;;;4.60;85.33;100946.38;5033174;28;20192;-55
2022/02/04 17:02:01;;;;;;;20.80;3.58;;;;;;;4.61;86.45;100960.56;5032874;28;20079;-54
2022/02/04 17:04:27;;;;;;;18.10;3.13;;;;;;;4.57;86.70;100953.84;5033056;28;20034;-56
2022/02/04 17:06:58;;;;;;;25.17;3.60;;;;;;;4.57;86.34;100957.34;5033088;28;20052;-56
2022/02/04 17:09:29;;;;;;;18.10;4.10;;;;;;;4.58;87.04;100951.03;5033254;28;20470;-56
2022/02/04 17:12:06;;;;;;;28.63;4.15;;;;;;;4.66;87.06;100957.47;5033122;28;20049;-55
2022/02/04 17:14:34;;;;;;;20.27;3.88;;;;;;;4.69;86.92;100974.03;5033031;28;20034;-55
2022/02/04 17:17:01;;;;;;;14.55;3.30;;;;;;;4.76;87.50;100974.31;5032921;28;20370;-54
2022/02/04 17:19:31;;;;;;;21.15;3.42;;;;;;;4.79;85.92;100984.69;5030925;28;20032;-55
2022/02/04 17:22:02;;;;;;;26.48;3.78;;;;;;;4.85;85.35;100984.16;5032827;28;20030;-55
2022/02/04 17:24:27;;;;;;;20.27;3.97;;;;;;;4.88;85.47;100999.03;5031881;28;20021;-56
2022/02/04 17:26:52;;;;;;;17.10;3.67;;;;;;;4.90;85.22;100997.91;5040407;28;20055;-54
2022/02/04 17:29:17;;;;;;;21.85;4.80;;;;;;;4.95;85.19;101000.97;5045589;28;20446;-54
2022/02/04 17:31:44;;;;;;;17.85;4.60;;;;;;;4.99;85.71;101006.88;5042381;28;20559;-55
2022/02/04 17:34:12;;;;;;;22.05;5.70;;;;;;;5.03;85.34;101018.94;5042732;28;20523;-56
2022/02/04 17:36:37;;;;;;;19.38;5.95;;;;;;;5.05;86.08;101027.63;5044172;28;20120;-55
2022/02/04 17:39:20;;;;;;;22.70;5.45;;;;;;;5.10;85.84;101024.53;5032762;28;20029;-56
2022/02/04 17:41:47;;;;;;;30.75;5.32;;;;;;;5.07;86.15;101031.00;5051877;28;20056;-54
2022/02/04 17:44:15;;;;;;;22.13;5.43;;;;;;;5.05;85.89;101031.16;5043307;28;20045;-55
2022/02/04 17:46:40;;;;;;;25.00;4.80;;;;;;;5.06;85.49;101029.34;5041481;28;20033;-54
2022/02/04 17:49:13;;;;;;;19.20;4.70;;;;;;;5.08;85.21;101038.00;5030185;28;20120;-53
2022/02/04 17:51:49;;;;;;;21.88;5.03;;;;;;;5.11;85.57;101032.41;5041497;28;20456;-54
2022/02/04 17:54:18;;;;;;;35.05;6.00;;;;;;;5.14;84.86;101037.47;5044284;28;20512;-55
2022/02/04 17:57:00;;;;;;;30.83;5.82;;;;;;;5.14;85.27;101041.97;5039027;28;20021;-55
2022/02/04 18:07:13;;;;;;;21.48;4.43;;;;;;;5.21;83.60;101053.72;5048774;28;20027;-54
2022/02/04 18:09:41;;;;;;;18.33;3.50;;;;;;;5.23;83.21;101051.78;5049183;28;20025;-54
2022/02/04 18:12:08;;;;;;;20.35;4.57;;;;;;;5.27;82.24;101056.69;5045796;28;20463;-54
2022/02/04 18:14:33;;;;;;;21.92;3.63;;;;;;;5.28;82.46;101065.53;5035517;28;20473;-56